Tongaat, South Africa
Current Conditions -  °F | °C
As of 11:00 AM on Wednesday 22 Oct 2014 (Local Time) from FALE Reporting Station
Broken Clouds Broken Clouds  
Wind Chill: 73°   Ceiling: 4500
Heat Index: 73°   Visibility: 6mi
Dew Point: 55°   Wind: 10mph
Humidity: 53%   Direction: 60°ENE
Pressure: 30.24"   Gusts: NA
Location:  29.58°S, 31.12°E
Report Text: FALE 220900Z 06009KT 020V100 9999 SCT030 BKN045 23/13 Q1024 NOSIG
Loading
Personal Weather Stations






























Interactive Weather Map
Tropical Storm Tracking
New forecast layout! Learn more

10-Day Weather Forecast

Advertisements
Track Severe Weather on mobile